Time;durP1;ratioP1;P1;durP2;ratioP2;P2;SDS_P1;SDS_P2;PMS_P1;PMS_P2;Temp;Humidity;BMP_temperature;BMP_pressure;BME280_temperature;BME280_humidity;BME280_pressure;Samples;Min_cycle;Max_cycle;Signal;HPM_P1;HPM_P2
2022/11/04 00:02:13;;;;;;;;;16.75;13.00;;;;;8.86;70.65;97920.97;4952475;28;103891;-70
2022/11/04 00:04:40;;;;;;;;;14.00;9.75;;;;;8.88;70.81;97924.25;4966695;28;102395;-69
2022/11/04 00:08:22;;;;;;;;;8.75;8.75;;;;;8.82;69.79;97920.56;4965000;28;104048;-70
2022/11/04 00:09:54;;;;;;;;;29.50;25.75;;;;;8.84;71.16;97917.63;4953537;28;102422;-70
2022/11/04 00:12:24;;;;;;;;;20.75;17.00;;;;;8.78;71.10;97919.28;4954500;28;102252;-70
2022/11/04 00:14:51;;;;;;;;;12.50;11.50;;;;;8.13;71.64;97812.25;4968983;28;102210;-70
2022/11/04 00:17:18;;;;;;;;;14.25;11.50;;;;;8.64;71.42;97900.63;4962166;28;104204;-70
2022/11/04 00:33:24;;;;;;;;;9.00;8.00;;;;;8.44;72.78;97900.59;4947582;28;102199;-70
2022/11/04 00:33:47;;;;;;;;;8.75;8.00;;;;;8.37;72.59;97897.06;4943301;28;103488;-71
2022/11/04 00:36:15;;;;;;;;;14.00;13.50;;;;;7.88;73.71;97849.66;4956518;28;102261;-71
2022/11/04 00:38:42;;;;;;;;;10.25;8.50;;;;;8.14;73.76;97872.31;4961127;28;103980;-71
2022/11/04 00:41:24;;;;;;;;;6.00;5.50;;;;;8.30;73.47;97888.13;4948459;28;102502;-71
2022/11/04 00:44:00;;;;;;;;;8.50;7.75;;;;;8.26;73.29;97881.47;4961695;28;102662;-71
2022/11/04 00:46:29;;;;;;;;;10.00;9.00;;;;;8.27;72.38;97872.34;4954559;28;102483;-71
2022/11/04 00:48:56;;;;;;;;;18.50;15.75;;;;;8.46;70.58;97885.06;4948845;28;103973;-70
2022/11/04 00:51:24;;;;;;;;;27.50;21.25;;;;;8.64;71.58;97879.06;4950475;28;102026;-71
2022/11/04 00:53:51;;;;;;;;;21.75;17.50;;;;;8.72;70.40;97871.63;4958170;28;102171;-71
2022/11/04 00:56:18;;;;;;;;;21.75;20.00;;;;;8.81;69.89;97877.63;4949834;28;102073;-71
2022/11/04 00:58:45;;;;;;;;;24.00;19.50;;;;;8.87;69.73;97871.41;4954502;28;104159;-70
2022/11/04 01:01:17;;;;;;;;;24.25;20.75;;;;;8.92;69.02;97860.81;4964125;28;102250;-69
2022/11/04 01:03:50;;;;;;;;;23.50;21.50;;;;;8.93;69.18;97866.00;4971459;28;102350;-71
2022/11/04 01:06:18;;;;;;;;;24.00;20.75;;;;;8.98;69.23;97856.44;4970623;28;102822;-71
2022/11/04 01:08:46;;;;;;;;;22.00;16.50;;;;;8.96;69.27;97854.78;4966475;28;103938;-70
2022/11/04 01:11:14;;;;;;;;;20.50;15.00;;;;;8.81;68.74;97821.00;4969085;28;104049;-70
2022/11/04 01:13:41;;;;;;;;;24.00;17.00;;;;;9.01;68.89;97848.75;4970804;28;102119;-70
2022/11/04 01:16:10;;;;;;;;;18.25;15.75;;;;;9.04;69.22;97842.16;4969841;28;102447;-70
2022/11/04 01:18:38;;;;;;;;;17.00;16.25;;;;;8.99;68.83;97850.03;4966469;28;104049;-70
2022/11/04 01:21:07;;;;;;;;;21.50;19.50;;;;;9.00;68.29;97846.31;4973731;28;103167;-71
2022/11/04 01:23:35;;;;;;;;;19.50;18.00;;;;;8.84;68.06;97805.25;4969578;28;102321;-70
2022/11/04 01:26:06;;;;;;;;;19.75;14.25;;;;;9.01;68.10;97842.53;4951848;28;102371;-70
2022/11/04 01:28:33;;;;;;;;;15.75;10.50;;;;;9.04;69.12;97844.84;4959317;28;108968;-70
2022/11/04 01:31:09;;;;;;;;;14.50;13.25;;;;;8.87;68.45;97802.13;4952892;28;102194;-69
2022/11/04 01:33:36;;;;;;;;;16.25;14.00;;;;;9.07;68.51;97828.22;4963855;28;102262;-70
2022/11/04 01:36:05;;;;;;;;;14.50;11.50;;;;;9.08;68.40;97822.63;4947848;28;102175;-70
2022/11/04 01:38:32;;;;;;;;;11.00;10.00;;;;;9.11;68.43;97813.28;4952052;28;108983;-70
2022/11/04 01:41:00;;;;;;;;;13.75;13.75;;;;;9.12;67.88;97820.34;4948755;28;104299;-70
2022/11/04 01:43:44;;;;;;;;;11.00;9.75;;;;;9.15;68.19;97814.50;4949532;28;102416;-70
2022/11/04 01:46:31;;;;;;;;;7.50;7.00;;;;;9.16;68.22;97808.91;4949706;28;102434;-70
2022/11/04 01:49:08;;;;;;;;;11.25;11.25;;;;;9.17;67.98;97804.34;4942112;28;103976;-69
2022/11/04 01:51:39;;;;;;;;;10.75;10.00;;;;;9.10;68.18;97787.34;4952038;28;102317;-71
2022/11/04 01:54:09;;;;;;;;;15.00;13.00;;;;;9.17;67.63;97804.34;4950031;28;102217;-71
2022/11/04 01:56:37;;;;;;;;;20.50;17.25;;;;;9.17;67.97;97798.97;4959066;28;102535;-70
2022/11/04 01:59:12;;;;;;;;;17.75;15.25;;;;;9.21;67.71;97789.41;4971560;28;103969;-69
2022/11/04 02:01:39;;;;;;;;;15.00;13.00;;;;;9.22;67.61;97785.69;4953028;28;102296;-70
2022/11/04 02:04:26;;;;;;;;;14.50;12.00;;;;;9.21;67.83;97792.09;4970432;28;102212;-71
2022/11/04 02:07:09;;;;;;;;;22.75;20.25;;;;;8.92;67.97;97739.50;4953787;28;102189;-70
2022/11/04 02:10:06;;;;;;;;;22.50;19.00;;;;;8.92;67.54;97732.22;4971295;28;108745;-70
2022/11/04 02:12:59;;;;;;;;;25.00;20.25;;;;;9.28;67.48;97768.63;4958585;28;102437;-70
2022/11/04 02:16:06;;;;;;;;;20.25;18.50;;;;;9.27;67.64;97764.28;4944822;28;102405;-70
2022/11/04 02:18:59;;;;;;;;;17.50;12.75;;;;;9.28;67.37;97760.53;4941647;28;102370;-71
2022/11/04 02:22:06;;;;;;;;;17.50;15.25;;;;;9.28;67.47;97763.22;4967244;28;108362;-70
2022/11/04 02:25:20;;;;;;;;;15.50;14.25;;;;;9.31;67.41;97760.94;4945497;28;102393;-70
2022/11/04 02:27:52;;;;;;;;;12.50;12.00;;;;;9.31;67.10;97757.44;4956325;28;101673;-70
2022/11/04 02:30:20;;;;;;;;;11.00;10.00;;;;;9.31;66.55;97752.84;4960606;28;102312;-70
2022/11/04 02:33:08;;;;;;;;;14.50;12.75;;;;;9.29;66.82;97735.22;4953112;28;103996;-70
2022/11/04 02:35:40;;;;;;;;;15.25;11.50;;;;;9.30;66.82;97744.97;4954659;28;102149;-70
2022/11/04 02:38:15;;;;;;;;;10.00;10.00;;;;;9.34;66.53;97746.19;4952255;28;103021;-71
2022/11/04 02:40:56;;;;;;;;;9.00;8.00;;;;;9.34;66.61;97749.72;4968890;28;102200;-70
2022/11/04 02:44:08;;;;;;;;;14.25;11.25;;;;;9.32;67.03;97740.22;4978225;28;103037;-70
2022/11/04 02:47:15;;;;;;;;;21.75;19.75;;;;;9.27;66.69;97735.44;4911913;28;105929;-70
2022/11/04 02:50:00;;;;;;;;;15.25;15.25;;;;;9.32;66.80;97735.59;4954035;28;102301;-70
2022/11/04 02:52:31;;;;;;;;;19.25;18.50;;;;;9.27;66.79;97721.97;4943031;28;102393;-70
2022/11/04 02:55:08;;;;;;;;;11.25;10.00;;;;;9.31;66.56;97720.50;4949754;28;104217;-70
2022/11/04 02:57:39;;;;;;;;;11.50;10.75;;;;;9.36;66.43;97725.25;4961369;28;105757;-71
2022/11/04 03:00:12;;;;;;;;;20.75;15.75;;;;;9.33;66.42;97715.69;4952112;28;102168;-70
2022/11/04 03:02:53;;;;;;;;;17.75;17.00;;;;;9.30;65.92;97707.22;4951038;28;102025;-71
2022/11/04 03:05:26;;;;;;;;;18.00;16.00;;;;;9.32;66.00;97705.13;4960130;28;104039;-70
2022/11/04 03:07:56;;;;;;;;;15.00;13.75;;;;;9.35;65.89;97719.00;4969218;28;102980;-70
2022/11/04 03:10:37;;;;;;;;;17.00;16.75;;;;;9.36;66.19;97712.59;4972480;28;102231;-70
2022/11/04 03:13:13;;;;;;;;;18.25;15.25;;;;;9.37;65.61;97702.59;4957102;28;102215;-69
2022/11/04 03:15:49;;;;;;;;;14.25;12.00;;;;;9.44;65.71;97713.38;4976908;28;110676;-70
2022/11/04 03:18:23;;;;;;;;;8.00;7.50;;;;;9.46;65.20;97704.00;4971096;28;102100;-69
2022/11/04 03:20:51;;;;;;;;;13.00;10.75;;;;;9.46;65.12;97717.50;4966610;28;104556;-69
2022/11/04 03:23:19;;;;;;;;;8.25;7.75;;;;;9.47;65.34;97705.66;4945193;28;101990;-69
2022/11/04 03:25:49;;;;;;;;;5.75;5.00;;;;;9.46;64.79;97706.69;4950293;28;104257;-69
2022/11/04 03:28:49;;;;;;;;;8.00;8.00;;;;;9.49;64.22;97706.28;4948494;28;102359;-69
2022/11/04 03:31:27;;;;;;;;;7.75;6.00;;;;;9.47;65.46;97702.97;4938230;28;102124;-69
2022/11/04 03:33:56;;;;;;;;;4.75;4.25;;;;;9.44;65.52;97697.19;4949565;28;101895;-70
2022/11/04 03:36:23;;;;;;;;;4.00;3.00;;;;;9.45;65.23;97705.06;4966494;28;103979;-70
2022/11/04 03:38:52;;;;;;;;;2.75;2.75;;;;;9.28;65.40;97685.84;4962174;28;102203;-70
2022/11/04 03:41:32;;;;;;;;;2.75;2.00;;;;;9.37;65.01;97708.00;4952872;28;102126;-70
2022/11/04 03:43:59;;;;;;;;;3.00;2.50;;;;;9.29;65.13;97702.84;4955326;28;102410;-70
2022/11/04 03:46:26;;;;;;;;;5.75;4.75;;;;;9.28;65.21;97704.72;4956537;28;103030;-70
2022/11/04 03:48:54;;;;;;;;;8.00;8.00;;;;;9.19;66.22;97686.28;4951402;28;102252;-70
2022/11/04 03:51:21;;;;;;;;;5.50;4.25;;;;;9.26;65.64;97698.72;4957337;28;102004;-70
2022/11/04 03:53:49;;;;;;;;;3.25;2.75;;;;;9.24;66.12;97686.47;4935591;28;102393;-70
2022/11/04 03:56:34;;;;;;;;;8.00;5.50;;;;;9.18;64.75;97687.34;4962524;28;104231;-70
2022/11/04 03:59:24;;;;;;;;;8.25;5.25;;;;;9.15;65.20;97680.50;4964098;28;102162;-70
2022/11/04 04:02:46;;;;;;;;;9.00;8.00;;;;;9.12;65.18;97682.81;4968048;28;104114;-70
2022/11/04 04:05:22;;;;;;;;;4.00;3.00;;;;;8.99;65.60;97681.00;4897361;28;102165;-71
2022/11/04 04:08:06;;;;;;;;;7.00;5.00;;;;;8.95;66.03;97680.59;4945975;28;104163;-70
2022/11/04 04:11:02;;;;;;;;;3.75;3.00;;;;;8.88;66.52;97682.47;4939126;28;102092;-70
2022/11/04 04:13:52;;;;;;;;;8.00;4.00;;;;;8.87;67.55;97675.44;4937012;28;102211;-70
2022/11/04 04:16:33;;;;;;;;;4.25;3.00;;;;;8.80;67.30;97669.25;4942966;28;103448;-70
2022/11/04 04:19:14;;;;;;;;;7.75;5.25;;;;;8.69;67.91;97667.19;4937622;28;104045;-70
2022/11/04 04:21:57;;;;;;;;;10.75;8.75;;;;;8.65;68.59;97674.03;4931138;28;102252;-70
2022/11/04 04:27:30;;;;;;;;;7.00;5.50;;;;;8.79;66.83;97664.06;4932047;28;102364;-70
2022/11/04 04:30:06;;;;;;;;;7.75;4.75;;;;;8.82;67.34;97675.25;4929192;28;103949;-71
2022/11/04 04:32:43;;;;;;;;;3.00;2.25;;;;;8.82;67.93;97671.72;4937098;28;102303;-70
2022/11/04 04:44:58;;;;;;;;;3.75;3.00;;;;;8.66;68.22;97669.50;4936435;28;102476;-70
2022/11/04 04:46:31;;;;;;;;;5.50;4.25;;;;;8.36;69.63;97653.81;4942582;28;102235;-70
2022/11/04 04:49:05;;;;;;;;;9.00;8.00;;;;;8.26;69.42;97666.00;4939459;28;102204;-69
2022/11/04 04:51:35;;;;;;;;;8.00;7.50;;;;;8.20;70.05;97656.06;4932449;28;103687;-71
2022/11/04 04:54:02;;;;;;;;;7.00;4.50;;;;;8.17;70.68;97656.50;4942121;28;102313;-71
2022/11/04 04:56:29;;;;;;;;;7.00;5.00;;;;;8.08;71.09;97651.34;4932171;28;102076;-70
2022/11/04 04:58:56;;;;;;;;;5.00;4.00;;;;;8.04;70.92;97654.66;4929659;28;103095;-70
2022/11/04 05:01:23;;;;;;;;;6.00;5.25;;;;;7.96;71.44;97652.19;4936061;28;104238;-69
2022/11/04 05:03:50;;;;;;;;;4.00;4.00;;;;;7.96;70.69;97644.94;4926740;28;102346;-70
2022/11/04 05:06:17;;;;;;;;;9.75;8.00;;;;;7.91;70.29;97636.66;4930885;28;102369;-70
2022/11/04 05:08:44;;;;;;;;;11.00;9.75;;;;;7.98;70.39;97642.84;4924655;28;103867;-70
2022/11/04 05:11:12;;;;;;;;;14.75;14.25;;;;;8.08;69.89;97640.56;4937438;28;104023;-69
2022/11/04 05:13:39;;;;;;;;;14.00;12.00;;;;;8.15;69.91;97642.44;4923735;28;102275;-69
2022/11/04 05:16:09;;;;;;;;;17.00;13.25;;;;;8.13;69.54;97644.50;4938038;28;102264;-69
2022/11/04 05:18:36;;;;;;;;;13.25;13.00;;;;;8.15;69.90;97632.47;4940373;28;102927;-70
2022/11/04 05:21:05;;;;;;;;;17.00;12.00;;;;;8.16;69.66;97642.19;4934535;28;104246;-70
2022/11/04 05:23:33;;;;;;;;;12.00;10.00;;;;;8.18;69.36;97639.31;4940472;28;102435;-69
2022/11/04 05:26:00;;;;;;;;;12.00;10.25;;;;;8.13;69.87;97649.88;4933859;28;102316;-69
2022/11/04 05:28:28;;;;;;;;;16.50;13.00;;;;;8.12;70.00;97651.75;4941131;28;102731;-69
2022/11/04 05:30:55;;;;;;;;;19.50;16.00;;;;;8.05;70.29;97642.84;4953222;28;104181;-70
2022/11/04 05:33:22;;;;;;;;;18.25;16.00;;;;;8.04;70.04;97642.03;4950404;28;102456;-69
2022/11/04 05:35:49;;;;;;;;;40.75;36.25;;;;;8.02;69.94;97638.69;4944407;28;102393;-70
2022/11/04 05:38:16;;;;;;;;;21.75;19.00;;;;;8.02;70.04;97633.31;4931904;28;102234;-70
2022/11/04 05:40:43;;;;;;;;;24.00;16.00;;;;;8.10;70.00;97631.47;4939629;28;104051;-70
2022/11/04 05:43:10;;;;;;;;;12.25;11.00;;;;;8.06;70.04;97637.25;4949346;28;102298;-71
2022/11/04 05:45:37;;;;;;;;;11.00;10.00;;;;;8.10;70.00;97642.22;4951486;28;102544;-70
2022/11/04 05:48:04;;;;;;;;;12.50;10.25;;;;;8.07;70.15;97632.69;4927899;28;102381;-69
2022/11/04 05:50:33;;;;;;;;;13.25;11.75;;;;;8.09;70.03;97625.25;4929994;28;104045;-69
2022/11/04 05:53:00;;;;;;;;;12.25;11.00;;;;;7.99;69.97;97625.66;4943581;28;102375;-70
2022/11/04 05:55:27;;;;;;;;;12.25;11.75;;;;;7.95;70.51;97621.75;4941054;28;103688;-70
2022/11/04 05:57:56;;;;;;;;;12.00;12.00;;;;;7.95;70.78;97615.53;4938105;28;102144;-70
2022/11/04 06:00:25;;;;;;;;;12.50;12.00;;;;;8.00;70.84;97611.19;4941635;28;104286;-71
2022/11/04 06:02:56;;;;;;;;;16.00;13.25;;;;;8.01;70.46;97615.50;4924917;28;102311;-70
2022/11/04 06:05:24;;;;;;;;;11.75;10.50;;;;;8.07;70.80;97614.69;4933279;28;102231;-70
2022/11/04 06:07:51;;;;;;;;;14.00;12.25;;;;;8.15;70.44;97620.91;4928860;28;104079;-70
2022/11/04 06:10:18;;;;;;;;;7.25;7.00;;;;;8.22;70.72;97633.31;4930829;28;104027;-70
2022/11/04 06:12:45;;;;;;;;;9.75;7.25;;;;;8.31;70.18;97628.56;4950273;28;102183;-70
2022/11/04 06:15:12;;;;;;;;;9.50;9.00;;;;;8.41;69.71;97628.94;4948839;28;102401;-69
2022/11/04 06:17:39;;;;;;;;;11.00;9.75;;;;;8.47;69.35;97622.69;4928502;28;102206;-70
2022/11/04 06:20:06;;;;;;;;;12.50;11.00;;;;;8.57;69.34;97625.78;4938683;28;108550;-69
2022/11/04 06:22:33;;;;;;;;;11.50;9.75;;;;;8.65;68.98;97613.94;4933404;28;102247;-70
2022/11/04 06:25:00;;;;;;;;;14.00;12.50;;;;;8.73;68.16;97619.09;4925504;28;104255;-70
2022/11/04 06:27:27;;;;;;;;;11.25;11.00;;;;;8.78;68.62;97614.72;4924419;28;102302;-69
2022/11/04 06:29:55;;;;;;;;;10.25;10.25;;;;;8.84;67.68;97615.72;4930988;28;103057;-70
2022/11/04 06:32:22;;;;;;;;;15.00;10.75;;;;;8.89;67.99;97616.75;4940988;28;102587;-71
2022/11/04 06:34:49;;;;;;;;;11.50;10.50;;;;;8.98;67.95;97613.78;4930304;28;102475;-70
2022/11/04 06:37:16;;;;;;;;;12.00;9.75;;;;;9.09;67.30;97626.63;4941403;28;102308;-70
2022/11/04 06:39:44;;;;;;;;;6.50;4.00;;;;;9.07;67.02;97605.25;4924821;28;103151;-71
2022/11/04 06:42:11;;;;;;;;;7.50;6.50;;;;;9.18;66.88;97611.84;4933285;28;104893;-70
2022/11/04 06:44:38;;;;;;;;;8.25;5.50;;;;;9.30;66.52;97626.28;4941070;28;102712;-70
2022/11/04 06:47:05;;;;;;;;;7.00;4.00;;;;;9.35;66.53;97618.38;4935153;28;102660;-71
2022/11/04 06:49:33;;;;;;;;;7.50;5.50;;;;;9.47;66.04;97623.88;4915455;28;104217;-71
2022/11/04 06:52:01;;;;;;;;;2.00;2.00;;;;;9.60;66.26;97630.00;4948542;28;102122;-71
2022/11/04 06:54:28;;;;;;;;;5.00;2.75;;;;;9.69;67.05;97626.00;4946594;28;102459;-71
2022/11/04 06:56:55;;;;;;;;;3.25;3.00;;;;;9.72;66.62;97627.47;4951956;28;102072;-71
2022/11/04 06:59:22;;;;;;;;;3.75;3.25;;;;;9.84;65.59;97623.00;4948980;28;104161;-71
2022/11/04 07:01:50;;;;;;;;;1.50;1.50;;;;;9.97;66.00;97628.28;4926355;28;110187;-71
2022/11/04 07:04:18;;;;;;;;;3.00;3.00;;;;;10.08;65.45;97634.84;4906572;28;103019;-71
2022/11/04 07:06:45;;;;;;;;;1.75;1.75;;;;;10.22;65.47;97633.72;4931306;28;102278;-70
2022/11/04 07:09:14;;;;;;;;;6.25;5.00;;;;;10.35;63.70;97628.19;4935832;28;103641;-70
2022/11/04 07:11:43;;;;;;;;;2.75;2.00;;;;;10.47;63.30;97631.78;4933148;28;102377;-71
2022/11/04 07:14:11;;;;;;;;;3.75;3.75;;;;;10.56;63.43;97633.13;4936689;28;102112;-71
2022/11/04 07:16:38;;;;;;;;;2.25;2.25;;;;;10.62;63.29;97637.66;4937156;28;102261;-70
2022/11/04 07:19:05;;;;;;;;;2.00;1.00;;;;;10.65;62.16;97625.56;4934910;28;108791;-70
2022/11/04 07:21:32;;;;;;;;;3.50;3.50;;;;;10.67;61.92;97628.88;4943107;28;101927;-70
2022/11/04 07:24:00;;;;;;;;;3.00;3.00;;;;;10.67;61.88;97621.56;4939106;28;102339;-70
2022/11/04 07:26:27;;;;;;;;;3.00;3.00;;;;;10.69;62.25;97627.59;4940798;28;102288;-71
2022/11/04 07:28:54;;;;;;;;;3.00;3.00;;;;;10.71;62.62;97622.78;4921718;28;105533;-70
2022/11/04 07:31:22;;;;;;;;;3.25;3.25;;;;;10.56;62.07;97595.28;4933021;28;102258;-70
2022/11/04 07:33:50;;;;;;;;;5.00;3.00;;;;;10.74;62.74;97616.91;4939782;28;102038;-71
2022/11/04 07:36:18;;;;;;;;;3.25;0.50;;;;;10.84;62.27;97615.56;4932154;28;102243;-70
2022/11/04 07:38:45;;;;;;;;;3.25;3.00;;;;;10.92;61.23;97609.84;4938004;28;104659;-70
2022/11/04 07:41:13;;;;;;;;;4.25;4.25;;;;;10.99;62.42;97614.09;4935021;28;102158;-71
2022/11/04 07:43:40;;;;;;;;;4.00;4.00;;;;;11.08;61.20;97610.03;4949432;28;101962;-71
2022/11/04 07:46:10;;;;;;;;;7.50;4.25;;;;;11.15;60.75;97610.78;4936054;28;102239;-70
2022/11/04 07:48:37;;;;;;;;;5.00;2.50;;;;;11.22;61.22;97599.03;4942071;28;108581;-71
2022/11/04 07:51:07;;;;;;;;;5.00;5.00;;;;;11.12;60.95;97580.66;4944561;28;102045;-70
2022/11/04 07:53:34;;;;;;;;;3.00;2.00;;;;;11.35;59.48;97596.97;4939335;28;102408;-70
2022/11/04 07:56:06;;;;;;;;;2.00;2.00;;;;;11.43;61.17;97601.25;4929480;28;104725;-70
2022/11/04 07:58:33;;;;;;;;;2.50;2.00;;;;;11.46;60.47;97598.88;4931535;28;103948;-70
2022/11/04 08:01:06;;;;;;;;;1.00;1.00;;;;;11.48;60.26;97604.88;4938301;28;102148;-70
2022/11/04 08:03:34;;;;;;;;;2.00;2.00;;;;;11.43;60.61;97587.69;4940688;28;102515;-70
2022/11/04 08:06:03;;;;;;;;;2.00;1.00;;;;;11.57;60.90;97600.00;4938446;28;102121;-71
2022/11/04 08:08:31;;;;;;;;;1.00;1.00;;;;;11.71;59.48;97603.31;4932954;28;103953;-71
2022/11/04 08:11:00;;;;;;;;;2.50;2.50;;;;;11.83;59.33;97596.88;4941551;28;102268;-70
2022/11/04 08:13:33;;;;;;;;;2.00;2.00;;;;;12.03;58.85;97601.94;4948783;28;102214;-70
2022/11/04 08:16:05;;;;;;;;;3.00;3.00;;;;;12.24;57.42;97595.16;4920398;28;101873;-70
2022/11/04 08:18:33;;;;;;;;;3.50;1.00;;;;;12.39;58.00;97590.88;4938522;28;104227;-71
2022/11/04 08:21:01;;;;;;;;;4.00;4.00;;;;;12.50;58.10;97598.19;4925926;28;102308;-70
2022/11/04 08:23:28;;;;;;;;;11.00;8.50;;;;;12.64;57.50;97592.50;4942345;28;102321;-70
2022/11/04 08:25:56;;;;;;;;;5.25;3.00;;;;;12.76;55.38;97596.84;4943403;28;102394;-71
2022/11/04 08:28:24;;;;;;;;;3.50;3.00;;;;;12.82;57.08;97595.06;4933580;28;103486;-71
2022/11/04 08:31:06;;;;;;;;;3.75;2.00;;;;;12.84;55.37;97590.19;4932082;28;102384;-71
2022/11/04 08:33:34;;;;;;;;;2.50;2.00;;;;;12.85;55.40;97579.13;4935068;28;102247;-70
2022/11/04 08:36:08;;;;;;;;;2.00;1.50;;;;;12.95;56.20;97579.34;4934874;28;102104;-71
2022/11/04 08:38:35;;;;;;;;;2.00;1.00;;;;;13.07;55.57;97570.31;4941531;28;103911;-71
2022/11/04 08:41:05;;;;;;;;;2.00;2.00;;;;;13.21;56.09;97564.38;4934152;28;102321;-71
2022/11/04 08:43:33;;;;;;;;;2.00;2.00;;;;;13.34;54.71;97566.81;4942546;28;102196;-71
2022/11/04 08:46:03;;;;;;;;;3.75;2.00;;;;;13.44;54.52;97554.47;4935134;28;101935;-70
2022/11/04 08:48:30;;;;;;;;;2.25;2.00;;;;;13.59;54.87;97552.03;4935705;28;103988;-71
2022/11/04 08:50:58;;;;;;;;;4.00;4.00;;;;;13.59;53.83;97541.16;4927978;28;102301;-70
2022/11/04 08:53:25;;;;;;;;;5.00;4.00;;;;;13.54;53.27;97541.91;4923099;28;102329;-71
2022/11/04 08:55:52;;;;;;;;;10.25;10.00;;;;;13.54;54.59;97543.78;4932105;28;102487;-71
2022/11/04 08:58:21;;;;;;;;;9.75;9.00;;;;;13.40;54.48;97541.41;4948785;28;104021;-70
2022/11/04 09:00:48;;;;;;;;;7.00;6.25;;;;;13.62;56.06;97537.94;4940656;28;102108;-71
2022/11/04 09:03:16;;;;;;;;;3.75;2.75;;;;;13.77;54.46;97532.78;4948068;28;102123;-71
2022/11/04 09:05:46;;;;;;;;;2.50;2.00;;;;;13.90;54.44;97532.44;4932150;28;101992;-71
2022/11/04 09:08:15;;;;;;;;;2.00;2.00;;;;;14.07;54.48;97535.97;4954134;28;104198;-71
2022/11/04 09:10:44;;;;;;;;;2.00;2.00;;;;;14.23;53.69;97528.84;4949701;28;102427;-71
2022/11/04 09:13:12;;;;;;;;;2.25;2.25;;;;;14.34;54.82;97522.47;4951553;28;102171;-70
2022/11/04 09:15:39;;;;;;;;;3.25;1.50;;;;;14.57;51.68;97525.00;4949945;28;102338;-70
2022/11/04 09:18:06;;;;;;;;;1.00;1.00;;;;;14.79;51.21;97529.59;4935660;28;104077;-70
2022/11/04 09:20:37;;;;;;;;;2.00;2.00;;;;;14.92;51.95;97518.31;4934685;28;102300;-70
2022/11/04 09:23:05;;;;;;;;;3.75;2.00;;;;;14.93;51.97;97512.63;4944248;28;102225;-70
2022/11/04 09:25:32;;;;;;;;;2.00;2.00;;;;;14.89;49.96;97525.13;4940433;28;102757;-70
2022/11/04 09:27:59;;;;;;;;;2.50;1.00;;;;;14.97;50.09;97516.50;4935859;28;102966;-71
2022/11/04 09:30:27;;;;;;;;;3.25;3.00;;;;;15.00;50.02;97515.16;4939623;28;102359;-70
2022/11/04 09:32:53;;;;;;;;;1.50;1.00;;;;;15.07;49.82;97508.44;4940219;28;102049;-70
2022/11/04 09:35:20;;;;;;;;;1.50;1.00;;;;;15.10;50.12;97510.63;4930280;28;101884;-70
2022/11/04 09:37:49;;;;;;;;;2.00;2.00;;;;;15.09;50.27;97513.59;4935448;28;103977;-69
2022/11/04 09:40:19;;;;;;;;;3.00;3.00;;;;;15.18;50.37;97503.91;4931268;28;102407;-70
2022/11/04 09:43:14;;;;;;;;;1.25;1.00;;;;;15.24;49.64;97508.31;4937344;28;102101;-70
2022/11/04 09:45:42;;;;;;;;;4.75;4.25;;;;;15.22;50.14;97501.50;4948684;28;102192;-70
2022/11/04 09:48:27;;;;;;;;;4.00;3.50;;;;;15.23;49.77;97508.56;4934017;28;108520;-70
2022/11/04 09:50:58;;;;;;;;;3.25;3.00;;;;;15.25;50.65;97501.81;4951022;28;102142;-71
2022/11/04 09:53:46;;;;;;;;;3.67;3.67;;;;;15.30;50.42;97501.88;4944577;28;102334;-71
2022/11/04 09:56:21;;;;;;;;;3.75;3.00;;;;;15.35;50.37;97503.81;4943171;28;102471;-71
2022/11/04 09:58:50;;;;;;;;;2.00;2.00;;;;;15.45;50.06;97492.97;4933650;28;103979;-69
2022/11/04 10:01:16;;;;;;;;;3.00;3.00;;;;;15.45;49.60;97490.25;4948789;28;102304;-70
2022/11/04 10:04:04;;;;;;;;;4.00;3.50;;;;;15.44;49.62;97488.66;4935829;28;102384;-69
2022/11/04 10:06:53;;;;;;;;;4.00;2.67;;;;;15.55;50.35;97493.09;4947426;28;102637;-69
2022/11/04 10:09:22;;;;;;;;;3.00;3.00;;;;;15.60;49.58;97491.25;4941681;28;108622;-71
2022/11/04 10:12:14;;;;;;;;;1.00;1.00;;;;;15.62;49.80;97502.69;4941071;28;101877;-70
2022/11/04 10:14:53;;;;;;;;;1.00;1.00;;;;;15.65;49.77;97506.81;4941994;28;102386;-70
2022/11/04 10:17:40;;;;;;;;;2.00;1.33;;;;;15.59;50.17;97499.69;4943785;28;102216;-71
2022/11/04 10:20:22;;;;;;;;;4.67;2.00;;;;;15.59;50.34;97502.41;4928454;28;110892;-71
2022/11/04 10:23:17;;;;;;;;;2.00;2.00;;;;;15.63;49.89;97490.72;4926264;28;102278;-71
2022/11/04 10:25:48;;;;;;;;;2.33;2.00;;;;;15.68;50.29;97487.22;4931812;28;102138;-71
2022/11/04 10:28:18;;;;;;;;;3.33;3.00;;;;;15.66;49.01;97486.69;4940394;28;102420;-70
2022/11/04 10:30:51;;;;;;;;;1.00;1.00;;;;;15.45;49.08;97465.75;4938345;28;104191;-70
2022/11/04 10:33:20;;;;;;;;;2.33;2.00;;;;;15.60;50.27;97484.97;4958473;28;102315;-70
2022/11/04 10:35:52;;;;;;;;;1.00;1.00;;;;;15.53;50.16;97489.84;4956290;28;101956;-70
2022/11/04 10:38:43;;;;;;;;;3.00;2.00;;;;;15.54;51.59;97484.13;4938053;28;101847;-69
2022/11/04 10:41:37;;;;;;;;;4.00;3.00;;;;;15.47;49.84;97471.75;4954128;28;108436;-70
2022/11/04 10:44:21;;;;;;;;;4.25;4.00;;;;;15.26;50.63;97473.50;4940638;28;102169;-70
2022/11/04 10:47:01;;;;;;;;;4.00;3.50;;;;;15.23;50.04;97454.13;4930213;28;102208;-70
2022/11/04 10:49:43;;;;;;;;;5.75;3.00;;;;;15.44;50.68;97466.84;4935550;28;102438;-70
2022/11/04 10:52:35;;;;;;;;;6.75;6.50;;;;;15.51;52.05;97483.81;4921632;28;109575;-70
2022/11/04 10:55:02;;;;;;;;;13.25;11.50;;;;;15.03;52.86;97480.09;4924906;28;105761;-71
2022/11/04 10:57:29;;;;;;;;;14.00;12.00;;;;;14.97;52.64;97478.38;4933559;28;102310;-70
2022/11/04 11:00:02;;;;;;;;;13.00;12.00;;;;;14.76;53.69;97476.53;4941350;28;102323;-70
2022/11/04 11:02:35;;;;;;;;;16.50;13.00;;;;;14.55;53.90;97485.50;4936040;28;103671;-70
2022/11/04 11:05:17;;;;;;;;;16.00;13.00;;;;;14.37;54.57;97483.91;4937044;28;102145;-70
2022/11/04 11:07:46;;;;;;;;;13.75;11.25;;;;;14.48;55.26;97484.88;4935206;28;102392;-72
2022/11/04 11:10:20;;;;;;;;;8.00;7.50;;;;;14.42;55.38;97480.44;4942804;28;102314;-70
2022/11/04 11:12:55;;;;;;;;;19.50;18.50;;;;;14.35;54.75;97482.50;4946200;28;108725;-70
2022/11/04 11:16:02;;;;;;;;;19.00;17.25;;;;;14.33;54.96;97466.44;4942553;28;102242;-70
2022/11/04 11:18:29;;;;;;;;;25.50;22.25;;;;;14.31;55.15;97468.59;4917567;28;102006;-70
2022/11/04 11:21:09;;;;;;;;;18.75;16.25;;;;;14.42;56.17;97462.22;4946601;28;102462;-70
2022/11/04 11:23:46;;;;;;;;;16.75;13.25;;;;;14.36;55.82;97465.97;4929077;28;103455;-69
2022/11/04 11:26:28;;;;;;;;;11.25;10.00;;;;;14.45;56.43;97469.09;4934567;28;102156;-70
2022/11/04 11:29:00;;;;;;;;;11.00;11.00;;;;;14.30;56.53;97462.34;4953902;28;102390;-69
2022/11/04 11:31:36;;;;;;;;;15.50;13.25;;;;;14.23;57.47;97467.13;4951707;28;102418;-70
2022/11/04 11:34:17;;;;;;;;;19.75;17.50;;;;;14.14;57.14;97465.09;4936298;28;104008;-70
2022/11/04 11:36:46;;;;;;;;;20.25;15.75;;;;;14.22;55.97;97461.97;4929047;28;102121;-71
2022/11/04 11:39:18;;;;;;;;;19.25;16.00;;;;;14.23;56.44;97447.25;4943307;28;102067;-69
2022/11/04 11:42:05;;;;;;;;;16.50;11.00;;;;;14.35;57.53;97455.31;4934750;28;102454;-70
2022/11/04 11:44:37;;;;;;;;;9.25;7.50;;;;;14.59;55.89;97454.81;4950194;28;104011;-70
2022/11/04 11:47:17;;;;;;;;;7.75;7.75;;;;;14.78;55.63;97446.31;4963801;28;102254;-70
2022/11/04 11:49:44;;;;;;;;;12.50;11.75;;;;;14.90;55.92;97445.13;4931045;28;101993;-71
2022/11/04 11:52:29;;;;;;;;;8.75;8.25;;;;;15.19;54.45;97438.31;4937587;28;102450;-69
2022/11/04 11:55:15;;;;;;;;;9.25;7.00;;;;;15.50;53.84;97438.53;4950155;28;108545;-69
2022/11/04 11:58:15;;;;;;;;;5.25;5.00;;;;;15.76;53.38;97440.41;4945433;28;102527;-69
2022/11/04 12:01:17;;;;;;;;;5.75;5.50;;;;;15.85;50.75;97430.66;4952072;28;102293;-70
2022/11/04 12:03:51;;;;;;;;;5.50;5.00;;;;;16.00;50.75;97428.03;4941039;28;102199;-70
2022/11/04 12:07:10;;;;;;;;;3.00;3.00;;;;;16.25;51.87;97423.78;4937512;28;103296;-70
2022/11/04 12:10:21;;;;;;;;;3.75;3.00;;;;;16.38;51.34;97423.31;4932628;28;102463;-70
2022/11/04 12:13:35;;;;;;;;;2.00;2.00;;;;;16.31;50.17;97417.25;4926654;28;102489;-70
2022/11/04 12:16:28;;;;;;;;;5.67;4.33;;;;;16.36;49.31;97420.00;4912528;28;102396;-69